Time;durP1;ratioP1;P1;durP2;ratioP2;P2;SDS_P1;SDS_P2;PMS_P1;PMS_P2;Temp;Humidity;BMP_temperature;BMP_pressure;BME280_temperature;BME280_humidity;BME280_pressure;Samples;Min_cycle;Max_cycle;Signal;HPM_P1;HPM_P2
2023/01/26 00:01:36;;;;;;;79.50;22.65;;;;;;;-1.81;100.00;102504.63;5033201;28;20021;-80
2023/01/26 00:04:01;;;;;;;168.27;86.40;;;;;;;-1.88;100.00;102500.28;5040465;28;20036;-80
2023/01/26 00:06:27;;;;;;;96.00;23.77;;;;;;;-1.77;100.00;102497.75;5048652;28;20033;-80
2023/01/26 00:08:54;;;;;;;75.75;21.88;;;;;;;-1.76;100.00;102492.59;5052322;28;20021;-80
2023/01/26 00:11:31;;;;;;;161.63;84.18;;;;;;;-1.92;100.00;102486.53;5047353;28;20028;-80
2023/01/26 00:13:58;;;;;;;174.00;85.65;;;;;;;-1.93;100.00;102484.81;5048243;28;20389;-80
2023/01/26 00:16:24;;;;;;;163.57;84.22;;;;;;;-1.91;100.00;102480.50;5050789;28;20388;-80
2023/01/26 00:18:49;;;;;;;166.73;84.53;;;;;;;-1.90;100.00;102478.78;5049353;28;20025;-80
2023/01/26 00:21:18;;;;;;;79.97;23.83;;;;;;;-1.80;100.00;102479.69;5049610;28;20033;-80
2023/01/26 00:23:43;;;;;;;81.20;21.50;;;;;;;-1.78;100.00;102472.81;5051203;28;20017;-80
2023/01/26 00:26:12;;;;;;;154.00;81.40;;;;;;;-1.90;100.00;102473.63;5049504;28;20041;-80
2023/01/26 00:28:44;;;;;;;70.47;20.23;;;;;;;-1.81;100.00;102465.91;5044576;28;20025;-80
2023/01/26 00:31:18;;;;;;;74.07;21.13;;;;;;;-1.78;100.00;102472.81;5034380;28;20035;-80
2023/01/26 00:33:43;;;;;;;146.45;77.60;;;;;;;-1.87;100.00;102467.63;5048941;28;20106;-80
2023/01/26 00:36:09;;;;;;;74.88;20.10;;;;;;;-1.76;100.00;102465.94;5050858;28;20057;-80
2023/01/26 00:38:34;;;;;;;69.00;22.40;;;;;;;-1.74;100.00;102461.63;5048569;28;20120;-80
2023/01/26 00:41:01;;;;;;;141.98;78.53;;;;;;;-1.85;100.00;102453.88;5048588;28;20104;-80
2023/01/26 00:43:26;;;;;;;144.40;78.13;;;;;;;-1.88;100.00;102453.00;5051868;28;20040;-80
2023/01/26 00:45:51;;;;;;;71.95;21.08;;;;;;;-1.74;100.00;102459.06;5047658;28;20036;-80
2023/01/26 00:48:17;;;;;;;138.50;78.03;;;;;;;-1.85;100.00;102448.72;5048817;28;20135;-80
2023/01/26 00:50:42;;;;;;;135.65;75.90;;;;;;;-1.86;100.00;102440.97;5049967;28;20048;-80
2023/01/26 00:53:09;;;;;;;60.00;18.88;;;;;;;-1.77;100.00;102441.00;5050624;28;20036;-80
2023/01/26 00:55:35;;;;;;;132.20;74.10;;;;;;;-1.84;100.00;102441.84;5052499;28;20481;-80
2023/01/26 00:58:01;;;;;;;136.82;74.75;;;;;;;-1.84;100.00;102439.25;5051283;28;20029;-80
2023/01/26 01:00:27;;;;;;;136.57;74.43;;;;;;;-1.84;100.00;102429.78;5048529;28;20025;-80
2023/01/26 01:02:55;;;;;;;132.40;74.40;;;;;;;-1.88;100.00;102424.63;5051018;28;20043;-80
2023/01/26 01:05:21;;;;;;;136.50;73.97;;;;;;;-1.87;100.00;102424.63;5047393;28;20395;-80
2023/01/26 01:07:46;;;;;;;140.55;73.53;;;;;;;-1.83;100.00;102420.34;5032095;28;20498;-80
2023/01/26 01:10:12;;;;;;;74.28;20.75;;;;;;;-1.75;100.00;102429.81;5048084;28;20112;-78
2023/01/26 01:12:37;;;;;;;127.43;71.50;;;;;;;-1.84;100.00;102423.78;5052938;28;20025;-79
2023/01/26 01:15:03;;;;;;;129.18;71.38;;;;;;;-1.85;100.00;102417.75;5049892;28;20047;-79
2023/01/26 01:17:28;;;;;;;131.68;74.43;;;;;;;-1.83;100.00;102415.19;5049944;28;20033;-79
2023/01/26 01:19:54;;;;;;;66.57;18.70;;;;;;;-1.73;100.00;102422.06;5044998;28;20059;-79
2023/01/26 01:22:19;;;;;;;126.22;72.18;;;;;;;-1.84;100.00;102422.06;5050163;28;20029;-79
2023/01/26 01:24:44;;;;;;;132.65;73.55;;;;;;;-1.83;100.00;102428.94;5051483;28;20104;-80
2023/01/26 01:27:09;;;;;;;127.32;73.03;;;;;;;-1.80;100.00;102420.34;5047552;28;20084;-80
2023/01/26 01:29:35;;;;;;;134.27;74.82;;;;;;;-1.84;100.00;102423.78;5046203;28;20112;-80
2023/01/26 01:32:00;;;;;;;133.02;73.93;;;;;;;-1.80;100.00;102422.94;5047597;28;20029;-80
2023/01/26 01:34:26;;;;;;;64.90;18.98;;;;;;;-1.69;100.00;102421.22;5043626;28;20033;-79
2023/01/26 01:36:51;;;;;;;58.55;19.25;;;;;;;-1.66;100.00;102413.47;5033190;28;20025;-80
2023/01/26 01:39:16;;;;;;;135.88;74.18;;;;;;;-1.72;100.00;102423.78;5049211;28;20015;-80
2023/01/26 01:41:42;;;;;;;135.07;73.07;;;;;;;-1.72;100.00;102423.78;5047971;28;20051;-80
2023/01/26 01:44:21;;;;;;;130.65;73.93;;;;;;;-1.69;100.00;102434.13;5048051;28;20029;-80
2023/01/26 01:46:54;;;;;;;130.52;73.20;;;;;;;-1.73;100.00;102422.06;5043203;28;20075;-79
2023/01/26 01:49:25;;;;;;;57.22;18.77;;;;;;;-1.63;100.00;102428.97;5049667;28;20450;-80
2023/01/26 01:52:00;;;;;;;59.13;16.98;;;;;;;-1.64;100.00;102425.53;5044524;28;20237;-80
2023/01/26 01:54:34;;;;;;;128.73;70.07;;;;;;;-1.72;100.00;102424.66;5042761;28;20122;-80
2023/01/26 01:57:05;;;;;;;127.63;71.13;;;;;;;-1.73;100.00;102424.66;5048235;28;20029;-80
2023/01/26 01:59:31;;;;;;;126.75;70.85;;;;;;;-1.74;100.00;102433.25;5048924;28;20013;-80
2023/01/26 02:01:57;;;;;;;126.05;70.30;;;;;;;-1.78;100.00;102434.97;5047424;28;20070;-80
2023/01/26 02:04:24;;;;;;;128.95;69.10;;;;;;;-1.76;100.00;102427.22;5049777;28;20473;-80
2023/01/26 02:06:52;;;;;;;127.40;69.38;;;;;;;-1.79;100.00;102422.06;5049855;28;20057;-80
2023/01/26 02:12:13;;;;;;;126.18;68.03;;;;;;;-1.71;100.00;102420.34;5048191;28;20035;-80
2023/01/26 02:14:39;;;;;;;125.38;68.50;;;;;;;-1.72;100.00;102416.06;5049622;28;20039;-80
2023/01/26 02:17:05;;;;;;;57.22;16.95;;;;;;;-1.62;100.00;102410.91;5049504;28;20029;-80
2023/01/26 02:20:13;;;;;;;128.00;69.22;;;;;;;-1.64;100.00;102404.03;5049068;28;20021;-80
2023/01/26 02:22:42;;;;;;;64.20;19.27;;;;;;;-1.57;100.00;102398.03;5043949;28;20612;-81
2023/01/26 02:25:18;;;;;;;53.85;17.42;;;;;;;-1.55;100.00;102395.47;5027549;28;20033;-79
2023/01/26 02:27:44;;;;;;;117.63;65.38;;;;;;;-1.64;100.00;102391.13;5056092;28;20113;-80
2023/01/26 02:30:11;;;;;;;120.18;65.45;;;;;;;-1.63;100.00;102398.00;5047972;28;20029;-79
2023/01/26 02:32:37;;;;;;;64.65;19.00;;;;;;;-1.51;100.00;102387.72;5044162;28;20087;-79
2023/01/26 02:35:02;;;;;;;54.38;17.48;;;;;;;-1.49;100.00;102398.91;5050178;28;20029;-80
2023/01/26 02:37:27;;;;;;;118.13;65.97;;;;;;;-1.54;100.00;102395.47;5049601;28;20111;-80
2023/01/26 02:40:03;;;;;;;122.70;67.00;;;;;;;-1.56;100.00;102401.47;5049323;28;20029;-79
2023/01/26 02:42:37;;;;;;;62.42;17.90;;;;;;;-1.46;100.00;102392.88;5046057;28;20063;-79
2023/01/26 02:45:03;;;;;;;116.57;66.60;;;;;;;-1.53;100.00;102388.56;5047351;28;20033;-80
2023/01/26 02:47:28;;;;;;;122.05;66.57;;;;;;;-1.55;100.00;102386.00;5048070;28;20040;-80
2023/01/26 02:49:53;;;;;;;124.13;68.97;;;;;;;-1.56;100.00;102389.44;5047634;28;20083;-79
2023/01/26 02:52:22;;;;;;;116.68;64.07;;;;;;;-1.53;100.00;102389.44;5046936;28;20079;-79
2023/01/26 02:57:33;;;;;;;114.22;62.92;;;;;;;-1.51;100.00;102381.69;5046298;28;20039;-79
2023/01/26 02:59:59;;;;;;;108.20;61.17;;;;;;;-1.47;100.00;102383.41;5030965;28;20040;-80
2023/01/26 03:02:24;;;;;;;115.85;64.82;;;;;;;-1.49;100.00;102380.84;5044767;28;20029;-79
2023/01/26 03:04:50;;;;;;;116.20;64.22;;;;;;;-1.47;100.00;102378.25;5044099;28;20116;-79
2023/01/26 03:07:15;;;;;;;58.60;18.00;;;;;;;-1.35;100.00;102383.41;5042957;28;20132;-79
2023/01/26 03:09:42;;;;;;;113.53;63.28;;;;;;;-1.48;100.00;102377.41;5048921;28;20112;-79
2023/01/26 03:12:07;;;;;;;112.95;63.00;;;;;;;-1.45;100.00;102377.38;5048061;28;20032;-79
2023/01/26 03:14:32;;;;;;;116.78;65.22;;;;;;;-1.49;100.00;102375.69;5043678;28;20044;-79
2023/01/26 03:16:58;;;;;;;54.53;16.75;;;;;;;-1.39;100.00;102377.38;5030716;28;20087;-79
2023/01/26 03:27:45;;;;;;;115.95;63.75;;;;;;;-1.45;100.00;102387.72;5039525;28;20048;-80
2023/01/26 03:30:11;;;;;;;110.55;62.10;;;;;;;-1.42;100.00;102377.38;5028049;28;20082;-80
2023/01/26 03:32:37;;;;;;;110.72;62.65;;;;;;;-1.36;100.00;102377.38;5042483;28;20037;-80
2023/01/26 03:35:02;;;;;;;121.65;66.05;;;;;;;-1.41;100.00;102373.94;5045377;28;20511;-79
2023/01/26 03:37:33;;;;;;;124.30;65.75;;;;;;;-1.42;100.00;102372.22;5046214;28;20028;-80
2023/01/26 03:56:23;;;;;;;113.55;59.90;;;;;;;-1.29;100.00;102366.19;5046896;28;20040;-80
2023/01/26 03:58:56;;;;;;;112.60;61.25;;;;;;;-1.30;100.00;102356.72;5048444;28;20461;-80
2023/01/26 04:01:27;;;;;;;114.82;60.95;;;;;;;-1.28;100.00;102357.59;5047616;28;20032;-81
2023/01/26 04:09:26;;;;;;;44.28;14.40;;;;;;;-1.15;100.00;102360.19;5049352;28;20558;-81
2023/01/26 04:11:51;;;;;;;95.85;51.92;;;;;;;-1.26;100.00;102348.13;5046592;28;20028;-81
2023/01/26 04:22:39;;;;;;;94.07;51.15;;;;;;;-1.15;100.00;102366.19;5028639;28;20040;-81
2023/01/26 04:25:08;;;;;;;96.82;51.45;;;;;;;-1.19;100.00;102363.63;5030047;28;20029;-81
2023/01/26 04:27:33;;;;;;;95.32;50.97;;;;;;;-1.11;100.00;102354.13;5038560;28;20400;-79
2023/01/26 04:30:00;;;;;;;83.93;46.33;;;;;;;-1.14;100.00;102355.00;5051468;28;20029;-80
2023/01/26 04:32:26;;;;;;;88.95;47.90;;;;;;;-1.17;100.00;102346.41;5050391;28;20118;-79
2023/01/26 04:34:51;;;;;;;86.38;47.03;;;;;;;-1.14;100.00;102349.84;5051981;28;20484;-78
2023/01/26 04:37:16;;;;;;;43.67;12.68;;;;;;;-1.04;100.00;102354.13;5045609;28;20038;-79
2023/01/26 04:39:42;;;;;;;84.60;45.70;;;;;;;-1.11;100.00;102361.88;5064812;28;20019;-80
2023/01/26 04:42:07;;;;;;;85.30;44.78;;;;;;;-1.10;100.00;102358.44;5052084;28;20619;-80
2023/01/26 04:44:32;;;;;;;86.93;46.90;;;;;;;-1.15;100.00;102345.53;5067405;28;20495;-80
2023/01/26 04:46:58;;;;;;;90.90;47.35;;;;;;;-1.11;100.00;102356.72;5048322;28;20033;-81
2023/01/26 04:49:23;;;;;;;88.20;46.72;;;;;;;-1.12;100.00;102360.16;5048807;28;20036;-79
2023/01/26 04:51:48;;;;;;;85.05;45.33;;;;;;;-1.09;100.00;102349.84;5050029;28;20021;-79
2023/01/26 04:54:14;;;;;;;82.30;43.67;;;;;;;-1.06;100.00;102355.00;5046317;28;20036;-81
2023/01/26 04:56:39;;;;;;;84.78;43.55;;;;;;;-1.07;100.00;102353.28;5049631;28;20067;-80
2023/01/26 04:59:10;;;;;;;81.95;42.05;;;;;;;-1.06;100.00;102357.56;5050095;28;20071;-80
2023/01/26 05:01:35;;;;;;;77.20;41.22;;;;;;;-1.05;100.00;102359.28;5049541;28;20155;-81
2023/01/26 05:04:02;;;;;;;78.32;41.20;;;;;;;-1.04;100.00;102356.72;5050179;28;20528;-79
2023/01/26 05:06:28;;;;;;;80.93;42.42;;;;;;;-1.01;100.00;102353.25;5048851;28;20036;-80
2023/01/26 05:08:54;;;;;;;78.60;41.15;;;;;;;-0.99;100.00;102356.69;5049195;28;20493;-80
2023/01/26 05:11:19;;;;;;;73.68;39.20;;;;;;;-0.92;100.00;102353.22;5041854;28;20033;-80
2023/01/26 05:13:46;;;;;;;78.03;40.95;;;;;;;-0.97;100.00;102361.00;5031832;28;20017;-79
2023/01/26 05:16:13;;;;;;;76.05;40.50;;;;;;;-0.92;100.00;102348.06;5047921;28;20063;-80
2023/01/26 05:18:41;;;;;;;77.30;42.33;;;;;;;-0.93;100.00;102348.94;5049617;28;20024;-80
2023/01/26 05:21:08;;;;;;;79.18;40.20;;;;;;;-0.92;100.00;102350.66;5048290;28;20032;-80
2023/01/26 05:23:33;;;;;;;79.43;40.63;;;;;;;-0.93;100.00;102350.66;5037743;28;20048;-79
2023/01/26 05:25:59;;;;;;;71.57;39.28;;;;;;;-0.87;100.00;102351.50;5050331;28;20378;-79
2023/01/26 05:28:24;;;;;;;79.63;40.85;;;;;;;-0.92;100.00;102350.66;5040934;28;20572;-79
2023/01/26 05:30:49;;;;;;;76.25;38.83;;;;;;;-0.89;100.00;102353.22;5031153;28;20401;-79
2023/01/26 05:33:15;;;;;;;72.97;38.60;;;;;;;-0.84;100.00;102350.63;5048501;28;20123;-79
2023/01/26 05:35:41;;;;;;;76.55;39.97;;;;;;;-0.87;100.00;102355.78;5047848;28;20037;-80
2023/01/26 05:38:06;;;;;;;74.43;38.65;;;;;;;-0.91;100.00;102354.94;5048604;28;20086;-80
2023/01/26 05:40:32;;;;;;;72.47;38.67;;;;;;;-0.91;100.00;102354.94;5050669;28;20025;-80
2023/01/26 05:42:57;;;;;;;77.07;39.83;;;;;;;-0.90;100.00;102353.22;5047515;28;20568;-80
2023/01/26 05:45:22;;;;;;;73.15;39.25;;;;;;;-0.87;100.00;102359.25;5045901;28;20033;-78
2023/01/26 05:47:48;;;;;;;69.85;37.45;;;;;;;-0.86;100.00;102360.97;5041522;28;20616;-78
2023/01/26 05:50:14;;;;;;;72.28;38.13;;;;;;;-0.88;100.00;102360.09;5048402;28;20385;-79
2023/01/26 05:52:42;;;;;;;67.97;36.90;;;;;;;-0.87;100.00;102361.81;5046902;28;20546;-79
2023/01/26 05:55:08;;;;;;;68.18;36.78;;;;;;;-0.82;100.00;102360.09;5047809;28;20035;-79
2023/01/26 05:57:33;;;;;;;69.80;37.92;;;;;;;-0.81;100.00;102356.63;5050814;28;20074;-78
2023/01/26 05:59:59;;;;;;;67.05;36.35;;;;;;;-0.82;100.00;102362.66;5044093;28;20473;-79
2023/01/26 06:02:26;;;;;;;69.22;36.83;;;;;;;-0.79;100.00;102364.41;5047488;28;20032;-80
2023/01/26 06:04:51;;;;;;;66.65;36.38;;;;;;;-0.81;100.00;102366.97;5050010;28;20029;-79
2023/01/26 06:07:17;;;;;;;70.20;37.10;;;;;;;-0.82;100.00;102365.25;5049499;28;20441;-79
2023/01/26 06:09:42;;;;;;;68.80;37.05;;;;;;;-0.79;100.00;102364.41;5049579;28;20083;-79
2023/01/26 06:12:16;;;;;;;66.18;36.33;;;;;;;-0.72;100.00;102374.72;5048191;28;20067;-79
2023/01/26 06:14:42;;;;;;;62.88;34.78;;;;;;;-0.70;100.00;102369.56;5048104;28;20029;-79
2023/01/26 06:17:07;;;;;;;63.13;34.65;;;;;;;-0.70;100.00;102378.16;5045759;28;20040;-79
2023/01/26 06:19:34;;;;;;;66.65;35.00;;;;;;;-0.72;100.00;102377.31;5044087;28;20028;-79
2023/01/26 06:22:07;;;;;;;64.63;34.90;;;;;;;-0.69;100.00;102382.47;5047450;28;20455;-79
2023/01/26 06:24:38;;;;;;;63.53;35.75;;;;;;;-0.70;100.00;102380.75;5042552;28;20120;-79
2023/01/26 06:27:09;;;;;;;64.13;34.75;;;;;;;-0.69;100.00;102372.13;5043402;28;20059;-79
2023/01/26 06:29:34;;;;;;;67.10;35.08;;;;;;;-0.72;100.00;102372.13;5045718;28;20025;-79
2023/01/26 06:31:59;;;;;;;60.05;32.50;;;;;;;-0.71;100.00;102366.09;5047718;28;20448;-79
2023/01/26 06:34:26;;;;;;;62.85;33.35;;;;;;;-0.73;100.00;102375.59;5041346;28;20028;-79
2023/01/26 06:36:52;;;;;;;59.88;32.95;;;;;;;-0.65;100.00;102381.59;5048147;28;20040;-79
2023/01/26 06:39:18;;;;;;;61.05;32.83;;;;;;;-0.64;100.00;102380.72;5046111;28;20044;-79
2023/01/26 06:41:43;;;;;;;63.75;33.55;;;;;;;-0.67;100.00;102387.63;5048440;28;20044;-79
2023/01/26 06:44:09;;;;;;;62.83;31.58;;;;;;;-0.64;100.00;102378.13;5057375;28;20099;-79
2023/01/26 06:46:34;;;;;;;57.00;30.70;;;;;;;-0.65;100.00;102384.16;5049828;28;20486;-79
2023/01/26 06:49:03;;;;;;;57.83;31.40;;;;;;;-0.66;100.00;102386.75;5048858;28;20029;-79
2023/01/26 06:51:31;;;;;;;59.22;31.83;;;;;;;-0.65;100.00;102384.16;5065141;28;20025;-79
2023/01/26 06:53:57;;;;;;;58.22;30.73;;;;;;;-0.61;100.00;102381.56;5049540;28;20469;-79
2023/01/26 06:56:23;;;;;;;57.22;31.33;;;;;;;-0.62;100.00;102385.88;5048065;28;20029;-79
2023/01/26 06:58:49;;;;;;;56.05;30.30;;;;;;;-0.64;100.00;102387.63;5048125;28;20025;-79
2023/01/26 07:01:19;;;;;;;56.25;30.80;;;;;;;-0.61;100.00;102385.03;5047957;28;20484;-79
2023/01/26 07:03:47;;;;;;;60.15;31.10;;;;;;;-0.61;100.00;102389.34;5048461;28;20107;-79
2023/01/26 07:06:12;;;;;;;55.55;30.33;;;;;;;-0.65;100.00;102393.66;5045797;28;20074;-79
2023/01/26 07:08:39;;;;;;;63.83;32.67;;;;;;;-0.65;100.00;102381.59;5049471;28;20493;-79
2023/01/26 07:11:05;;;;;;;60.88;32.65;;;;;;;-0.64;100.00;102385.91;5049630;28;20063;-78
2023/01/26 07:13:30;;;;;;;62.30;32.33;;;;;;;-0.64;100.00;102396.22;5050344;28;20508;-78
2023/01/26 07:16:15;;;;;;;62.83;31.80;;;;;;;-0.57;100.00;102394.47;5049593;28;20039;-79
2023/01/26 07:18:41;;;;;;;60.38;31.85;;;;;;;-0.59;100.00;102403.97;5035501;28;20059;-79
2023/01/26 07:21:09;;;;;;;65.53;33.50;;;;;;;-0.57;100.00;102406.53;5044249;28;20845;-79
2023/01/26 07:23:35;;;;;;;64.50;32.78;;;;;;;-0.59;100.00;102403.97;5051441;28;20024;-79
2023/01/26 07:26:01;;;;;;;67.65;33.42;;;;;;;-0.60;100.00;102403.97;5060144;28;20429;-79
2023/01/26 07:28:26;;;;;;;61.22;31.67;;;;;;;-0.59;100.00;102403.97;5058981;28;20785;-79
2023/01/26 07:30:58;;;;;;;65.93;32.75;;;;;;;-0.57;100.00;102401.38;5052115;28;20057;-79
2023/01/26 07:33:30;;;;;;;66.47;32.60;;;;;;;-0.54;100.00;102407.41;5063465;28;20489;-80
2023/01/26 07:35:56;;;;;;;62.92;32.08;;;;;;;-0.53;100.00;102396.19;5059618;28;20632;-77
2023/01/26 07:38:22;;;;;;;31.67;9.75;;;;;;;-0.39;100.00;102406.50;5057594;28;20375;-80
2023/01/26 07:40:48;;;;;;;29.48;8.77;;;;;;;-0.37;100.00;102405.63;5051227;28;20128;-80
2023/01/26 07:43:14;;;;;;;62.42;31.95;;;;;;;-0.50;100.00;102396.19;5055896;28;20427;-80
2023/01/26 07:45:39;;;;;;;69.60;34.33;;;;;;;-0.55;100.00;102399.66;5066651;28;20500;-76
2023/01/26 07:48:05;;;;;;;63.53;32.90;;;;;;;-0.50;100.00;102397.91;5048309;28;20045;-76
2023/01/26 07:50:31;;;;;;;62.30;33.17;;;;;;;-0.45;100.00;102409.09;5055100;28;20127;-76
2023/01/26 07:52:59;;;;;;;65.50;34.17;;;;;;;-0.47;100.00;102408.22;5063880;28;20468;-78
2023/01/26 07:55:25;;;;;;;64.82;33.63;;;;;;;-0.43;100.00;102415.97;5058791;28;20070;-78
2023/01/26 07:57:51;;;;;;;34.55;9.00;;;;;;;-0.33;100.00;102411.66;5074286;28;20021;-78
2023/01/26 08:00:17;;;;;;;65.47;33.47;;;;;;;-0.42;100.00;102422.00;5061515;28;20039;-78
2023/01/26 08:02:43;;;;;;;73.57;35.10;;;;;;;-0.47;100.00;102414.25;5063209;28;20023;-78
2023/01/26 08:05:08;;;;;;;68.18;34.35;;;;;;;-0.43;100.00;102430.63;5059121;28;20385;-78
2023/01/26 08:07:34;;;;;;;76.15;35.05;;;;;;;-0.49;100.00;102426.34;5069266;28;20089;-78
2023/01/26 08:09:59;;;;;;;68.00;34.38;;;;;;;-0.47;100.00;102428.91;5059678;28;20695;-78
2023/01/26 08:12:25;;;;;;;79.35;36.85;;;;;;;-0.48;100.00;102419.44;5072354;28;20066;-78
2023/01/26 08:14:50;;;;;;;74.15;34.50;;;;;;;-0.42;100.00;102428.03;5056653;28;20028;-78
2023/01/26 08:17:16;;;;;;;75.43;35.60;;;;;;;-0.41;100.00;102429.75;5048421;28;20033;-78
2023/01/26 08:19:42;;;;;;;81.10;37.08;;;;;;;-0.39;100.00;102437.53;5054850;28;20098;-78
2023/01/26 08:22:09;;;;;;;72.55;35.22;;;;;;;-0.37;100.00;102436.66;5062257;28;20028;-78
2023/01/26 08:24:34;;;;;;;76.53;36.92;;;;;;;-0.40;100.00;102430.63;5063004;28;20107;-78
2023/01/26 08:27:00;;;;;;;74.32;36.28;;;;;;;-0.36;100.00;102434.94;5056079;28;20115;-79
2023/01/26 08:29:25;;;;;;;81.63;38.10;;;;;;;-0.36;100.00;102429.75;5067823;28;20029;-79
2023/01/26 08:31:51;;;;;;;78.47;37.72;;;;;;;-0.38;100.00;102434.09;5057165;28;20109;-79
2023/01/26 08:34:16;;;;;;;79.82;37.35;;;;;;;-0.40;100.00;102436.69;5061896;28;20076;-78
2023/01/26 08:36:41;;;;;;;85.68;37.55;;;;;;;-0.38;100.00;102439.25;5065031;28;20228;-78
2023/01/26 08:39:07;;;;;;;78.20;37.40;;;;;;;-0.33;100.00;102442.69;5053598;28;20110;-79
2023/01/26 08:41:32;;;;;;;86.07;38.70;;;;;;;-0.36;100.00;102432.34;5061134;28;20032;-78
2023/01/26 08:43:58;;;;;;;81.47;37.22;;;;;;;-0.34;100.00;102440.97;5063774;28;20395;-79
2023/01/26 08:46:24;;;;;;;78.78;38.30;;;;;;;-0.32;100.00;102442.69;5060629;28;20503;-79
2023/01/26 08:48:50;;;;;;;76.85;37.85;;;;;;;-0.27;100.00;102447.81;5055419;28;20036;-79
2023/01/26 08:51:15;;;;;;;82.63;39.22;;;;;;;-0.27;100.00;102453.00;5067003;28;20066;-80
2023/01/26 08:53:41;;;;;;;85.30;39.97;;;;;;;-0.26;100.00;102449.53;5055037;28;20024;-78
2023/01/26 08:56:09;;;;;;;86.90;38.67;;;;;;;-0.27;100.00;102453.00;5049803;28;20508;-78
2023/01/26 08:58:34;;;;;;;84.65;38.92;;;;;;;-0.23;100.00;102449.53;5051513;28;20489;-79
2023/01/26 09:01:04;;;;;;;79.05;38.08;;;;;;;-0.21;100.00;102447.81;5050454;28;20082;-79
2023/01/26 09:03:30;;;;;;;102.35;41.15;;;;;;;-0.25;100.00;102443.50;5050646;28;20363;-79
2023/01/26 09:05:58;;;;;;;96.88;40.97;;;;;;;-0.26;100.00;102441.78;5051392;28;20036;-79
2023/01/26 09:08:24;;;;;;;84.32;39.33;;;;;;;-0.20;100.00;102446.94;5050614;28;20750;-78
2023/01/26 09:10:49;;;;;;;90.35;39.63;;;;;;;-0.18;100.00;102444.34;5040981;28;20037;-78
2023/01/26 09:13:14;;;;;;;87.75;39.25;;;;;;;-0.19;100.00;102450.38;5046639;28;20033;-78
2023/01/26 09:15:40;;;;;;;86.93;39.13;;;;;;;-0.17;100.00;102446.91;5032569;28;20480;-78
2023/01/26 09:18:05;;;;;;;85.68;39.92;;;;;;;-0.13;100.00;102448.63;5038470;28;20025;-79
2023/01/26 09:20:30;;;;;;;82.88;40.55;;;;;;;-0.11;100.00;102446.03;5049407;28;20021;-78
2023/01/26 09:22:56;;;;;;;85.57;40.38;;;;;;;-0.12;100.00;102447.75;5049872;28;20029;-79
2023/01/26 09:25:21;;;;;;;111.85;41.20;;;;;;;-0.13;100.00;102451.22;5051620;28;20052;-78
2023/01/26 09:27:47;;;;;;;84.65;38.67;;;;;;;-0.04;100.00;102451.16;5044234;28;20031;-79
2023/01/26 09:30:13;;;;;;;78.70;37.45;;;;;;;-0.02;100.00;102452.03;5050532;28;20494;-78
2023/01/26 09:32:38;;;;;;;83.95;38.20;;;;;;;0.01;100.00;102458.94;5050787;28;20466;-78
2023/01/26 09:35:10;;;;;;;95.10;40.20;;;;;;;-0.01;100.00;102463.22;5051155;28;20100;-78
2023/01/26 09:37:39;;;;;;;115.82;42.63;;;;;;;-0.06;100.00;102458.06;5051669;28;20029;-78
2023/01/26 09:40:16;;;;;;;85.43;38.55;;;;;;;0.04;100.00;102456.34;5050226;28;20028;-78
2023/01/26 09:43:00;;;;;;;86.03;39.30;;;;;;;0.10;100.00;102464.06;5049583;28;20060;-78
2023/01/26 09:45:32;;;;;;;87.05;39.30;;;;;;;0.09;100.00;102458.91;5048479;28;20108;-78
2023/01/26 09:47:58;;;;;;;92.93;40.33;;;;;;;0.11;100.00;102460.59;5047965;28;20029;-78
2023/01/26 09:50:29;;;;;;;88.07;37.55;;;;;;;0.12;100.00;102464.06;5050470;28;20040;-78
2023/01/26 09:53:23;;;;;;;79.82;36.30;;;;;;;0.14;100.00;102462.31;5050919;28;20024;-79
2023/01/26 09:55:50;;;;;;;81.47;36.60;;;;;;;0.08;100.00;102465.81;5048694;28;20055;-78
2023/01/26 09:58:29;;;;;;;117.65;42.28;;;;;;;0.09;100.00;102470.09;5049467;28;20572;-78
2023/01/26 10:01:01;;;;;;;94.97;38.65;;;;;;;0.11;100.00;102464.94;5050503;28;20445;-78
2023/01/26 10:03:32;;;;;;;86.03;39.60;;;;;;;0.18;100.00;102464.88;5045158;28;20023;-79
2023/01/26 10:06:20;;;;;;;118.77;44.57;;;;;;;0.12;100.00;102462.34;5030503;28;20075;-79
2023/01/26 10:08:48;;;;;;;116.47;42.20;;;;;;;0.14;100.00;102454.56;5029797;28;20119;-78
2023/01/26 10:11:38;;;;;;;97.38;40.17;;;;;;;0.24;100.00;102461.41;5028956;28;20032;-78
2023/01/26 10:14:29;;;;;;;108.80;40.85;;;;;;;0.24;100.00;102457.09;5031128;28;20033;-79
2023/01/26 10:16:56;;;;;;;91.53;40.85;;;;;;;0.29;100.00;102457.06;5029504;28;20108;-78
2023/01/26 10:19:43;;;;;;;96.50;40.72;;;;;;;0.34;100.00;102463.06;5045727;28;20036;-78
2023/01/26 10:22:25;;;;;;;88.47;39.03;;;;;;;0.37;100.00;102455.28;5064132;28;20539;-78
2023/01/26 10:24:54;;;;;;;91.43;39.85;;;;;;;0.39;100.00;102450.09;5050327;28;20112;-78
2023/01/26 10:27:20;;;;;;;89.03;38.67;;;;;;;0.42;100.00;102445.78;5050598;28;20473;-78
2023/01/26 10:29:45;;;;;;;92.18;40.08;;;;;;;0.48;100.00;102450.06;5049960;28;20029;-78
2023/01/26 10:32:17;;;;;;;105.00;42.53;;;;;;;0.50;100.00;102458.66;5050343;28;20032;-79
2023/01/26 10:34:45;;;;;;;102.20;41.20;;;;;;;0.48;100.00;102456.09;5050954;28;20029;-78
2023/01/26 10:37:21;;;;;;;98.32;41.20;;;;;;;0.53;100.00;102463.81;5042562;28;20071;-78
2023/01/26 10:40:01;;;;;;;90.40;40.47;;;;;;;0.61;100.00;102464.63;5030785;28;20478;-78
2023/01/26 10:42:29;;;;;;;112.60;42.90;;;;;;;0.54;100.00;102461.22;5030693;28;20079;-78
2023/01/26 10:44:54;;;;;;;100.03;42.47;;;;;;;0.61;100.00;102460.31;5029736;28;20407;-78
2023/01/26 10:47:21;;;;;;;93.88;42.25;;;;;;;0.67;100.00;102461.13;5030404;28;20025;-78
2023/01/26 10:49:49;;;;;;;105.13;42.90;;;;;;;0.67;100.00;102459.41;5030380;28;20022;-78
2023/01/26 10:52:20;;;;;;;103.53;42.85;;;;;;;0.69;100.00;102446.44;5044815;28;20106;-78
2023/01/26 10:54:46;;;;;;;119.68;45.67;;;;;;;0.74;100.00;102462.81;5034668;28;20386;-78
2023/01/26 10:57:32;;;;;;;103.32;43.55;;;;;;;0.85;100.00;102468.78;5029073;28;20083;-78
2023/01/26 11:00:06;;;;;;;114.05;44.65;;;;;;;0.86;100.00;102458.41;5030261;28;20022;-78
2023/01/26 11:02:34;;;;;;;118.50;45.33;;;;;;;0.92;100.00;102460.09;5029280;28;20017;-78
2023/01/26 11:05:23;;;;;;;119.15;45.25;;;;;;;1.03;100.00;102450.50;5044138;28;20020;-78
2023/01/26 11:07:54;;;;;;;132.05;47.20;;;;;;;1.07;100.00;102448.72;5049924;28;20048;-78
2023/01/26 11:10:27;;;;;;;138.52;47.35;;;;;;;1.16;100.00;102446.03;5049497;28;20033;-78
2023/01/26 11:13:16;;;;;;;125.38;44.45;;;;;;;1.25;100.00;102452.03;5042999;28;20029;-78
2023/01/26 11:15:44;;;;;;;142.88;46.55;;;;;;;1.31;100.00;102451.09;5048093;28;20485;-79
2023/01/26 11:18:23;;;;;;;120.50;43.70;;;;;;;1.38;100.00;102441.53;5043443;28;20025;-78
2023/01/26 11:21:16;;;;;;;122.90;44.17;;;;;;;1.48;100.00;102450.91;5026735;28;20021;-78
2023/01/26 11:23:44;;;;;;;121.55;47.58;;;;;;;1.56;100.00;102451.69;5028440;28;20026;-78
2023/01/26 11:26:34;;;;;;;136.02;49.47;;;;;;;1.62;100.00;102454.25;5028023;28;20021;-77
2023/01/26 11:29:20;;;;;;;128.20;46.08;;;;;;;1.70;100.00;102452.41;5031813;28;20444;-79
2023/01/26 11:32:07;;;;;;;129.48;46.30;;;;;;;1.83;100.00;102456.56;5037647;28;20036;-78
2023/01/26 11:35:00;;;;;;;119.75;46.15;;;;;;;1.96;100.00;102456.41;5048749;28;20492;-79
2023/01/26 11:37:42;;;;;;;124.93;46.67;;;;;;;2.09;100.00;102458.00;5048837;28;20028;-77
2023/01/26 11:40:15;;;;;;;135.98;47.25;;;;;;;2.17;100.00;102456.16;5048245;28;20032;-78
2023/01/26 11:43:07;;;;;;;118.85;43.88;;;;;;;2.27;100.00;102449.97;5045958;28;20504;-77
2023/01/26 11:45:53;;;;;;;129.52;45.15;;;;;;;2.39;100.00;102452.38;5043294;28;20068;-78
2023/01/26 11:48:56;;;;;;;115.65;44.30;;;;;;;2.46;100.00;102438.44;5053086;28;20025;-78
2023/01/26 11:51:42;;;;;;;108.68;41.22;;;;;;;2.57;100.00;102443.47;5067788;28;20037;-76